Time;durP1;ratioP1;P1;durP2;ratioP2;P2;SDS_P1;SDS_P2;PMS_P1;PMS_P2;Temp;Humidity;BMP_temperature;BMP_pressure;BME280_temperature;BME280_humidity;BME280_pressure;Samples;Min_cycle;Max_cycle;Signal;HPM_P1;HPM_P2
2023/08/02 00:00:51;;;;;;;;;;;18.00;99.90;;;;;;6024083;23;19981;-71
2023/08/02 00:03:17;;;;;;;;;;;18.00;99.90;;;;;;6021851;23;20341;-70
2023/08/02 00:05:50;;;;;;;;;;;18.00;99.90;;;;;;6019642;23;19930;-70
2023/08/02 00:08:16;;;;;;;;;;;18.00;99.90;;;;;;6025076;23;20005;-70
2023/08/02 00:10:41;;;;;;;;;;;18.00;99.90;;;;;;6024462;23;20350;-71
2023/08/02 00:13:07;;;;;;;;;;;17.90;99.90;;;;;;6024908;23;19925;-71
2023/08/02 00:15:32;;;;;;;;;;;17.90;99.90;;;;;;6023427;23;19924;-71
2023/08/02 00:17:58;;;;;;;;;;;17.90;99.90;;;;;;6026032;23;20455;-71
2023/08/02 00:20:23;;;;;;;;;;;17.90;99.90;;;;;;6023765;23;19933;-67
2023/08/02 00:22:48;;;;;;;;;;;17.80;99.90;;;;;;6025804;23;19962;-67
2023/08/02 00:25:14;;;;;;;;;;;17.90;99.90;;;;;;6025360;23;20675;-67
2023/08/02 00:27:39;;;;;;;;;;;17.80;99.90;;;;;;6024771;23;19988;-67
2023/08/02 00:30:05;;;;;;;;;;;17.90;99.90;;;;;;6020142;23;19931;-67
2023/08/02 00:32:31;;;;;;;;;;;17.90;99.90;;;;;;6023467;23;20330;-66
2023/08/02 00:34:56;;;;;;;;;;;17.90;99.90;;;;;;6020478;23;20718;-66
2023/08/02 00:37:22;;;;;;;;;;;18.00;99.90;;;;;;6015158;23;20581;-67
2023/08/02 00:39:52;;;;;;;;;;;18.00;99.90;;;;;;6021125;23;19937;-71
2023/08/02 00:42:18;;;;;;;;;;;18.10;99.90;;;;;;6016665;23;19952;-66
2023/08/02 00:44:43;;;;;;;;;;;18.10;99.90;;;;;;6018382;23;20365;-67
2023/08/02 00:47:09;;;;;;;;;;;18.10;99.90;;;;;;6015869;23;19956;-67
2023/08/02 00:49:34;;;;;;;;;;;18.00;99.90;;;;;;6006607;23;20102;-67
2023/08/02 00:52:00;;;;;;;;;;;18.00;99.90;;;;;;6019821;23;19938;-67
2023/08/02 00:54:26;;;;;;;;;;;18.00;99.90;;;;;;6018040;23;19938;-67
2023/08/02 00:56:53;;;;;;;;;;;17.90;99.90;;;;;;6020659;23;19969;-67
2023/08/02 00:59:19;;;;;;;;;;;17.90;99.90;;;;;;5992951;23;19930;-67
2023/08/02 01:01:45;;;;;;;;;;;17.90;99.90;;;;;;6017698;23;19960;-67
2023/08/02 01:04:10;;;;;;;;;;;17.80;99.90;;;;;;6019954;23;19961;-67
2023/08/02 01:06:41;;;;;;;;;;;17.80;99.90;;;;;;6018671;23;20241;-67
2023/08/02 01:09:14;;;;;;;;;;;17.70;99.90;;;;;;6015680;23;19929;-67
2023/08/02 01:11:51;;;;;;;;;;;17.60;99.90;;;;;;6017134;23;19929;-68
2023/08/02 01:14:20;;;;;;;;;;;17.60;99.90;;;;;;6018357;23;20332;-67
2023/08/02 01:16:47;;;;;;;;;;;17.50;99.90;;;;;;6016034;23;19961;-66
2023/08/02 01:19:13;;;;;;;;;;;17.40;99.90;;;;;;6018715;23;19931;-66
2023/08/02 01:21:38;;;;;;;;;;;17.40;99.90;;;;;;6018494;23;19950;-66
2023/08/02 01:24:05;;;;;;;;;;;17.30;99.90;;;;;;6019914;23;20069;-66
2023/08/02 01:26:32;;;;;;;;;;;17.40;99.90;;;;;;6020392;23;19930;-66
2023/08/02 01:28:59;;;;;;;;;;;17.50;99.90;;;;;;6017199;23;19963;-66
2023/08/02 01:31:25;;;;;;;;;;;17.50;99.90;;;;;;6017113;23;19985;-66
2023/08/02 01:33:52;;;;;;;;;;;17.60;99.90;;;;;;6018946;23;19953;-65
2023/08/02 01:36:18;;;;;;;;;;;17.60;99.90;;;;;;6019818;23;19977;-65
2023/08/02 01:38:43;;;;;;;;;;;17.60;99.90;;;;;;6019577;23;19934;-66
2023/08/02 01:41:09;;;;;;;;;;;17.60;99.90;;;;;;6021394;23;19991;-66
2023/08/02 01:43:35;;;;;;;;;;;17.60;99.90;;;;;;6015949;23;20022;-66
2023/08/02 01:46:00;;;;;;;;;;;17.60;99.90;;;;;;5996410;23;19934;-66
2023/08/02 01:48:26;;;;;;;;;;;17.60;99.90;;;;;;6018727;23;19926;-66
2023/08/02 01:50:52;;;;;;;;;;;17.60;99.90;;;;;;6020041;23;20244;-68
2023/08/02 01:53:17;;;;;;;;;;;17.70;99.90;;;;;;6020123;23;19967;-68
2023/08/02 01:55:43;;;;;;;;;;;17.70;99.90;;;;;;6019084;23;20030;-68
2023/08/02 01:58:08;;;;;;;;;;;17.70;99.90;;;;;;6018993;23;19959;-68
2023/08/02 02:00:34;;;;;;;;;;;17.70;99.90;;;;;;6020789;23;19972;-67
2023/08/02 02:02:59;;;;;;;;;;;17.70;99.90;;;;;;6022771;23;19933;-68
2023/08/02 02:05:25;;;;;;;;;;;17.70;99.90;;;;;;6021822;23;19927;-68
2023/08/02 02:07:51;;;;;;;;;;;17.80;99.90;;;;;;6023947;23;19970;-65
2023/08/02 02:10:16;;;;;;;;;;;17.80;99.90;;;;;;6022762;23;19929;-65
2023/08/02 02:12:42;;;;;;;;;;;17.90;99.90;;;;;;6021813;23;20405;-65
2023/08/02 02:15:08;;;;;;;;;;;17.90;99.90;;;;;;6020221;23;19937;-66
2023/08/02 02:17:33;;;;;;;;;;;17.90;99.90;;;;;;6022090;23;19933;-66
2023/08/02 02:19:59;;;;;;;;;;;17.90;99.90;;;;;;6020739;23;20606;-66
2023/08/02 02:22:24;;;;;;;;;;;17.90;99.90;;;;;;6023588;23;20042;-66
2023/08/02 02:24:50;;;;;;;;;;;17.90;99.90;;;;;;6023867;23;19929;-66
2023/08/02 02:27:15;;;;;;;;;;;17.90;99.90;;;;;;6021607;23;19930;-66
2023/08/02 02:29:41;;;;;;;;;;;18.00;99.90;;;;;;6022402;23;19932;-66
2023/08/02 02:32:06;;;;;;;;;;;18.10;99.90;;;;;;6021777;23;20266;-66
2023/08/02 02:34:32;;;;;;;;;;;18.10;99.90;;;;;;6023639;23;20087;-66
2023/08/02 02:36:58;;;;;;;;;;;18.10;99.90;;;;;;6023808;23;20369;-66
2023/08/02 02:39:24;;;;;;;;;;;18.10;99.90;;;;;;6023188;23;20290;-66
2023/08/02 02:41:49;;;;;;;;;;;18.00;99.90;;;;;;6023591;23;19954;-66
2023/08/02 02:44:15;;;;;;;;;;;18.00;99.90;;;;;;6020241;23;19970;-66
2023/08/02 02:46:40;;;;;;;;;;;18.10;99.90;;;;;;6023149;23;19929;-66
2023/08/02 02:49:06;;;;;;;;;;;18.10;99.90;;;;;;6020621;23;20716;-66
2023/08/02 02:51:31;;;;;;;;;;;18.10;99.90;;;;;;6024312;23;19980;-66
2023/08/02 02:53:57;;;;;;;;;;;18.00;99.90;;;;;;6020891;23;20356;-66
2023/08/02 02:56:22;;;;;;;;;;;18.00;99.90;;;;;;6021467;23;20481;-66
2023/08/02 02:58:48;;;;;;;;;;;18.00;99.90;;;;;;6020387;23;19986;-65
2023/08/02 03:01:14;;;;;;;;;;;18.00;99.90;;;;;;5995597;23;20503;-66
2023/08/02 03:03:39;;;;;;;;;;;18.10;99.90;;;;;;6021280;23;19925;-66
2023/08/02 03:06:05;;;;;;;;;;;18.10;99.90;;;;;;6019145;23;19949;-66
2023/08/02 03:08:31;;;;;;;;;;;18.20;99.90;;;;;;6021509;23;19924;-66
2023/08/02 03:10:56;;;;;;;;;;;18.20;99.90;;;;;;6024016;23;19930;-66
2023/08/02 03:13:22;;;;;;;;;;;18.20;99.90;;;;;;6021954;23;20427;-66
2023/08/02 03:15:47;;;;;;;;;;;18.30;99.90;;;;;;6018811;23;19990;-66
2023/08/02 03:18:13;;;;;;;;;;;18.30;99.90;;;;;;6021636;23;20264;-66
2023/08/02 03:20:39;;;;;;;;;;;18.20;99.90;;;;;;6021777;23;19952;-66
2023/08/02 03:23:05;;;;;;;;;;;18.20;99.90;;;;;;6020998;23;19975;-66
2023/08/02 03:25:30;;;;;;;;;;;18.20;99.90;;;;;;6022821;23;20002;-66
2023/08/02 03:27:56;;;;;;;;;;;18.10;99.90;;;;;;6021543;23;19925;-66
2023/08/02 03:30:22;;;;;;;;;;;18.10;99.90;;;;;;6019843;23;19934;-66
2023/08/02 03:32:47;;;;;;;;;;;18.10;99.90;;;;;;6020394;23;20683;-66
2023/08/02 03:35:13;;;;;;;;;;;18.00;99.90;;;;;;6019987;23;20113;-66
2023/08/02 03:37:38;;;;;;;;;;;18.00;99.90;;;;;;5997473;23;19934;-66
2023/08/02 03:40:04;;;;;;;;;;;18.00;99.90;;;;;;6020587;23;20326;-66
2023/08/02 03:42:29;;;;;;;;;;;17.90;99.90;;;;;;6020251;23;19951;-68
2023/08/02 03:44:55;;;;;;;;;;;17.90;99.90;;;;;;6021693;23;19966;-68
2023/08/02 03:47:20;;;;;;;;;;;17.90;99.90;;;;;;6021816;23;19924;-68
2023/08/02 03:49:46;;;;;;;;;;;17.90;99.90;;;;;;6021467;23;20188;-68
2023/08/02 03:52:11;;;;;;;;;;;17.90;99.90;;;;;;6021307;23;19934;-68
2023/08/02 03:54:37;;;;;;;;;;;17.90;99.90;;;;;;6022003;23;19992;-68
2023/08/02 03:57:03;;;;;;;;;;;17.90;99.90;;;;;;6022142;23;19996;-68
2023/08/02 03:59:28;;;;;;;;;;;17.90;99.90;;;;;;6019968;23;20006;-68
2023/08/02 04:01:54;;;;;;;;;;;17.90;99.90;;;;;;6019969;23;20009;-68
2023/08/02 04:04:19;;;;;;;;;;;18.00;99.90;;;;;;6019435;23;20015;-68
2023/08/02 04:06:45;;;;;;;;;;;17.90;99.90;;;;;;6020562;23;19929;-68
2023/08/02 04:09:11;;;;;;;;;;;17.90;99.90;;;;;;6020409;23;19932;-68
2023/08/02 04:11:36;;;;;;;;;;;17.90;99.90;;;;;;6020177;23;20663;-68
2023/08/02 04:14:02;;;;;;;;;;;17.90;99.90;;;;;;6020398;23;19940;-68
2023/08/02 04:16:27;;;;;;;;;;;18.00;99.90;;;;;;6019717;23;20284;-68
2023/08/02 04:18:53;;;;;;;;;;;18.00;99.90;;;;;;6022014;23;20032;-68
2023/08/02 04:21:19;;;;;;;;;;;18.00;99.90;;;;;;6023100;23;20322;-68
2023/08/02 04:23:45;;;;;;;;;;;18.00;99.90;;;;;;6022767;23;19984;-68
2023/08/02 04:26:11;;;;;;;;;;;18.00;99.90;;;;;;6022235;23;19925;-68
2023/08/02 04:28:36;;;;;;;;;;;17.90;99.90;;;;;;6021430;23;19930;-68
2023/08/02 04:31:02;;;;;;;;;;;17.90;99.90;;;;;;6020937;23;20312;-68
2023/08/02 04:33:28;;;;;;;;;;;17.90;99.90;;;;;;6022379;23;20027;-68
2023/08/02 04:35:57;;;;;;;;;;;17.90;99.90;;;;;;6021125;23;20339;-68
2023/08/02 04:38:22;;;;;;;;;;;17.90;99.90;;;;;;6022170;23;20072;-66
2023/08/02 04:40:48;;;;;;;;;;;17.90;99.90;;;;;;6021172;23;19953;-66
2023/08/02 04:43:13;;;;;;;;;;;17.90;99.90;;;;;;6019583;23;19924;-66
2023/08/02 04:45:39;;;;;;;;;;;17.90;99.90;;;;;;6022100;23;20028;-66
2023/08/02 04:48:04;;;;;;;;;;;18.00;99.90;;;;;;6022755;23;19924;-66
2023/08/02 04:50:32;;;;;;;;;;;18.00;99.90;;;;;;6020555;23;20557;-66
2023/08/02 04:52:57;;;;;;;;;;;18.00;99.90;;;;;;6021499;23;19978;-68
2023/08/02 04:55:23;;;;;;;;;;;18.10;99.90;;;;;;6018690;23;19932;-67
2023/08/02 04:57:48;;;;;;;;;;;18.10;99.90;;;;;;6020103;23;19976;-68
2023/08/02 05:00:14;;;;;;;;;;;18.20;99.90;;;;;;6017868;23;20265;-68
2023/08/02 05:02:40;;;;;;;;;;;18.20;99.90;;;;;;6021628;23;19996;-68
2023/08/02 05:05:05;;;;;;;;;;;18.20;99.90;;;;;;6021714;23;20341;-68
2023/08/02 05:07:34;;;;;;;;;;;18.30;99.90;;;;;;6016966;23;19926;-68
2023/08/02 05:10:03;;;;;;;;;;;18.30;99.90;;;;;;6040267;23;19957;-68
2023/08/02 05:12:38;;;;;;;;;;;18.30;99.90;;;;;;6022470;23;20028;-67
2023/08/02 05:15:04;;;;;;;;;;;18.30;99.90;;;;;;6019283;23;20413;-68
2023/08/02 05:17:29;;;;;;;;;;;18.30;99.90;;;;;;6021640;23;20022;-68
2023/08/02 05:19:55;;;;;;;;;;;18.30;99.90;;;;;;6019262;23;19934;-68
2023/08/02 05:22:21;;;;;;;;;;;18.40;99.90;;;;;;6022608;23;20818;-68
2023/08/02 05:24:47;;;;;;;;;;;18.40;99.90;;;;;;6022539;23;19932;-68
2023/08/02 05:27:12;;;;;;;;;;;18.40;99.90;;;;;;6022328;23;20007;-67
2023/08/02 05:29:38;;;;;;;;;;;18.50;99.90;;;;;;6019488;23;20023;-68
2023/08/02 05:32:04;;;;;;;;;;;18.60;99.90;;;;;;6019212;23;19930;-65
2023/08/02 05:34:29;;;;;;;;;;;18.80;99.90;;;;;;6020659;23;20011;-65
2023/08/02 05:36:55;;;;;;;;;;;18.90;99.90;;;;;;6019056;23;19955;-65
2023/08/02 05:39:20;;;;;;;;;;;19.10;99.90;;;;;;6020370;23;19929;-65
2023/08/02 05:41:46;;;;;;;;;;;19.30;99.90;;;;;;6020260;23;20655;-65
2023/08/02 05:44:11;;;;;;;;;;;19.50;99.90;;;;;;6017733;23;19968;-65
2023/08/02 05:46:37;;;;;;;;;;;19.60;99.90;;;;;;6020284;23;20012;-65
2023/08/02 05:49:02;;;;;;;;;;;19.70;99.90;;;;;;6018829;23;19957;-65
2023/08/02 05:51:28;;;;;;;;;;;19.80;99.90;;;;;;6020825;23;19929;-65
2023/08/02 05:53:53;;;;;;;;;;;20.00;99.90;;;;;;6021365;23;20003;-64
2023/08/02 05:56:19;;;;;;;;;;;20.10;99.90;;;;;;5994817;23;19933;-65
2023/08/02 05:58:45;;;;;;;;;;;20.10;99.90;;;;;;6019032;23;19948;-65
2023/08/02 06:01:10;;;;;;;;;;;20.20;99.90;;;;;;6019140;23;19954;-65
2023/08/02 06:03:36;;;;;;;;;;;20.40;99.90;;;;;;6020007;23;20737;-65
2023/08/02 06:06:02;;;;;;;;;;;20.40;99.90;;;;;;6019844;23;20179;-65
2023/08/02 06:08:27;;;;;;;;;;;20.50;99.90;;;;;;6017711;23;19937;-68
2023/08/02 06:10:54;;;;;;;;;;;20.60;99.90;;;;;;6021626;23;19930;-68
2023/08/02 06:13:19;;;;;;;;;;;20.70;99.90;;;;;;6019069;23;19919;-68
2023/08/02 06:15:45;;;;;;;;;;;20.70;99.90;;;;;;6020904;23;19926;-68
2023/08/02 06:18:10;;;;;;;;;;;20.80;99.90;;;;;;6018718;23;20460;-68
2023/08/02 06:20:36;;;;;;;;;;;20.90;99.90;;;;;;6020556;23;19979;-68
2023/08/02 06:23:01;;;;;;;;;;;21.00;99.90;;;;;;5996811;23;19964;-69
2023/08/02 06:25:27;;;;;;;;;;;21.00;99.90;;;;;;5995161;23;20170;-69
2023/08/02 06:27:52;;;;;;;;;;;21.10;99.90;;;;;;6020210;23;20016;-69
2023/08/02 06:30:18;;;;;;;;;;;21.20;99.90;;;;;;6019141;23;19928;-68
2023/08/02 06:32:43;;;;;;;;;;;21.10;99.90;;;;;;6016865;23;20671;-69
2023/08/02 06:35:09;;;;;;;;;;;21.10;99.90;;;;;;6019323;23;19942;-68
2023/08/02 06:37:35;;;;;;;;;;;21.10;99.90;;;;;;6017547;23;19928;-68
2023/08/02 06:40:01;;;;;;;;;;;21.20;99.90;;;;;;6018976;23;20027;-68
2023/08/02 06:42:26;;;;;;;;;;;21.20;99.90;;;;;;6020238;23;19972;-69
2023/08/02 06:44:52;;;;;;;;;;;21.20;99.90;;;;;;6019476;23;20508;-69
2023/08/02 06:47:17;;;;;;;;;;;21.20;99.90;;;;;;6018744;23;19926;-71
2023/08/02 06:49:43;;;;;;;;;;;21.10;99.90;;;;;;6021605;23;20316;-70
2023/08/02 06:52:09;;;;;;;;;;;21.10;99.90;;;;;;6022018;23;19928;-69
2023/08/02 06:54:34;;;;;;;;;;;21.10;99.90;;;;;;6021961;23;19932;-69
2023/08/02 06:57:00;;;;;;;;;;;21.20;99.90;;;;;;6022800;23;20158;-68
2023/08/02 06:59:25;;;;;;;;;;;21.20;99.90;;;;;;6018817;23;20305;-69
2023/08/02 07:01:51;;;;;;;;;;;21.20;99.90;;;;;;6017588;23;20010;-69
2023/08/02 07:04:16;;;;;;;;;;;21.30;99.90;;;;;;5996001;23;19960;-66
2023/08/02 07:06:42;;;;;;;;;;;21.30;99.90;;;;;;6019467;23;19924;-65
2023/08/02 07:09:07;;;;;;;;;;;21.40;99.90;;;;;;6020302;23;19929;-66
2023/08/02 07:11:33;;;;;;;;;;;21.50;99.90;;;;;;6021297;23;20769;-66
2023/08/02 07:13:58;;;;;;;;;;;21.50;99.90;;;;;;6021115;23;19934;-66
2023/08/02 07:16:24;;;;;;;;;;;21.50;99.90;;;;;;6019237;23;19932;-66
2023/08/02 07:18:49;;;;;;;;;;;21.60;99.90;;;;;;6016347;23;19927;-65
2023/08/02 07:21:15;;;;;;;;;;;21.70;99.90;;;;;;6020401;23;19951;-66
2023/08/02 07:23:40;;;;;;;;;;;21.80;99.90;;;;;;6020846;23;20407;-67
2023/08/02 07:26:06;;;;;;;;;;;21.70;99.90;;;;;;6018751;23;20743;-66
2023/08/02 07:28:32;;;;;;;;;;;21.80;99.90;;;;;;6020981;23;20073;-66
2023/08/02 07:31:12;;;;;;;;;;;21.80;99.90;;;;;;6024511;23;19927;-66
2023/08/02 07:33:37;;;;;;;;;;;21.80;99.90;;;;;;6019803;23;20027;-66
2023/08/02 07:36:03;;;;;;;;;;;21.90;99.90;;;;;;6025939;23;20391;-66
2023/08/02 07:38:29;;;;;;;;;;;22.00;99.90;;;;;;6025224;23;20357;-67
2023/08/02 07:40:55;;;;;;;;;;;22.10;99.90;;;;;;6024950;23;19950;-67
2023/08/02 07:43:20;;;;;;;;;;;22.30;99.90;;;;;;6022523;23;19997;-68
2023/08/02 07:45:45;;;;;;;;;;;22.40;99.90;;;;;;6023076;23;19918;-68
2023/08/02 07:48:11;;;;;;;;;;;22.40;99.90;;;;;;6027012;23;20150;-68
2023/08/02 07:50:37;;;;;;;;;;;22.30;99.90;;;;;;6023209;23;19934;-68
2023/08/02 07:53:02;;;;;;;;;;;22.20;99.90;;;;;;6026095;23;20012;-68
2023/08/02 07:55:28;;;;;;;;;;;22.30;99.90;;;;;;6016098;23;19925;-68
2023/08/02 07:57:53;;;;;;;;;;;22.20;99.90;;;;;;6022654;23;20553;-70
2023/08/02 08:00:19;;;;;;;;;;;22.20;99.90;;;;;;6022724;23;19959;-74
2023/08/02 08:02:44;;;;;;;;;;;22.20;99.90;;;;;;6024709;23;19963;-74
2023/08/02 08:05:10;;;;;;;;;;;22.40;99.90;;;;;;6023933;23;19927;-73
2023/08/02 08:07:35;;;;;;;;;;;22.40;99.90;;;;;;6025456;23;19920;-73
2023/08/02 08:10:01;;;;;;;;;;;22.30;99.90;;;;;;6025737;23;20021;-72
2023/08/02 08:12:26;;;;;;;;;;;22.20;99.90;;;;;;6023410;23;19952;-73
2023/08/02 08:14:52;;;;;;;;;;;22.30;99.90;;;;;;6023424;23;20248;-73
2023/08/02 08:17:17;;;;;;;;;;;22.40;99.90;;;;;;6023482;23;20311;-72
2023/08/02 08:19:43;;;;;;;;;;;22.60;99.90;;;;;;6023671;23;19931;-73
2023/08/02 08:22:09;;;;;;;;;;;22.70;99.90;;;;;;6025217;23;19954;-74
2023/08/02 08:24:34;;;;;;;;;;;22.80;99.90;;;;;;6024332;23;19991;-72
2023/08/02 08:27:00;;;;;;;;;;;22.90;99.90;;;;;;6025473;23;19980;-73
2023/08/02 08:29:28;;;;;;;;;;;22.90;99.90;;;;;;6026318;23;19924;-73
2023/08/02 08:31:54;;;;;;;;;;;23.00;99.90;;;;;;6023377;23;19932;-73
2023/08/02 08:34:19;;;;;;;;;;;23.00;99.90;;;;;;6025382;23;20316;-72
2023/08/02 08:36:45;;;;;;;;;;;23.00;99.90;;;;;;6022889;23;20649;-62
2023/08/02 08:39:10;;;;;;;;;;;22.90;99.90;;;;;;6024430;23;19929;-62
2023/08/02 08:41:36;;;;;;;;;;;22.80;99.90;;;;;;6024897;23;20049;-62
2023/08/02 08:44:02;;;;;;;;;;;22.80;99.90;;;;;;6024314;23;19996;-62
2023/08/02 08:46:31;;;;;;;;;;;22.90;99.90;;;;;;6020597;23;19929;-62
2023/08/02 08:49:01;;;;;;;;;;;22.90;99.90;;;;;;6020422;23;20471;-61
2023/08/02 08:51:29;;;;;;;;;;;23.00;99.90;;;;;;6022611;23;19929;-62
2023/08/02 08:53:56;;;;;;;;;;;23.20;99.90;;;;;;6021236;23;19976;-62
2023/08/02 08:56:23;;;;;;;;;;;23.20;99.90;;;;;;6027715;23;20353;-62
2023/08/02 08:58:50;;;;;;;;;;;23.30;99.90;;;;;;6016630;23;20383;-62
2023/08/02 09:01:15;;;;;;;;;;;23.30;99.90;;;;;;6020889;23;20379;-62
2023/08/02 09:03:43;;;;;;;;;;;23.30;99.90;;;;;;6016651;23;19978;-62
2023/08/02 09:06:09;;;;;;;;;;;23.20;99.90;;;;;;6022647;23;19963;-62
2023/08/02 09:08:45;;;;;;;;;;;23.10;99.90;;;;;;6017220;23;19928;-63
2023/08/02 09:11:11;;;;;;;;;;;23.10;99.90;;;;;;6022883;23;19934;-62
2023/08/02 09:13:36;;;;;;;;;;;23.10;99.90;;;;;;6045725;23;20373;-62
2023/08/02 09:16:09;;;;;;;;;;;23.00;99.90;;;;;;6016226;23;20226;-65
2023/08/02 09:18:42;;;;;;;;;;;23.10;99.90;;;;;;5995855;23;19931;-67
2023/08/02 09:21:09;;;;;;;;;;;23.10;99.90;;;;;;6023054;23;19952;-67
2023/08/02 09:23:34;;;;;;;;;;;23.00;99.90;;;;;;6023678;23;20362;-67
2023/08/02 09:26:12;;;;;;;;;;;22.90;99.90;;;;;;6024308;23;19933;-67
2023/08/02 09:28:38;;;;;;;;;;;22.90;99.90;;;;;;6022898;23;19926;-66
2023/08/02 09:31:14;;;;;;;;;;;23.00;99.90;;;;;;6025370;23;19926;-79
2023/08/02 09:33:49;;;;;;;;;;;22.90;99.90;;;;;;6022685;23;20113;-80
2023/08/02 09:36:21;;;;;;;;;;;22.80;99.90;;;;;;6023592;23;20357;-81
2023/08/02 09:39:01;;;;;;;;;;;22.80;99.90;;;;;;6023285;23;20020;-79
2023/08/02 09:41:27;;;;;;;;;;;22.90;99.90;;;;;;6017113;23;19961;-79
2023/08/02 09:43:52;;;;;;;;;;;23.00;99.90;;;;;;6020284;23;19969;-79
2023/08/02 09:46:22;;;;;;;;;;;23.10;99.90;;;;;;6011130;23;20186;-78
2023/08/02 09:48:47;;;;;;;;;;;23.10;99.90;;;;;;6018823;23;19959;-79
2023/08/02 09:51:13;;;;;;;;;;;23.30;99.90;;;;;;6019768;23;19941;-79
2023/08/02 09:53:38;;;;;;;;;;;23.50;99.90;;;;;;6000773;23;19932;-78
2023/08/02 09:56:04;;;;;;;;;;;23.60;99.90;;;;;;6022901;23;20726;-79
2023/08/02 09:58:30;;;;;;;;;;;23.60;99.90;;;;;;6019596;23;19939;-78
2023/08/02 10:00:56;;;;;;;;;;;23.70;99.90;;;;;;6024782;23;20051;-79
2023/08/02 10:03:26;;;;;;;;;;;23.70;99.90;;;;;;5999301;23;20490;-81
2023/08/02 10:05:53;;;;;;;;;;;23.80;99.90;;;;;;6025104;23;19932;-80
2023/08/02 10:08:18;;;;;;;;;;;23.80;99.90;;;;;;6025871;23;19929;-79
2023/08/02 10:10:45;;;;;;;;;;;23.90;99.90;;;;;;6026642;23;19955;-82
2023/08/02 10:13:17;;;;;;;;;;;23.90;99.90;;;;;;6025118;23;19927;-79
2023/08/02 10:15:43;;;;;;;;;;;23.90;99.90;;;;;;5998531;23;19937;-78
2023/08/02 10:18:08;;;;;;;;;;;23.90;99.90;;;;;;6024728;23;19987;-80
2023/08/02 10:20:34;;;;;;;;;;;23.90;99.90;;;;;;6025603;23;19988;-82
2023/08/02 10:23:03;;;;;;;;;;;24.00;99.90;;;;;;6024794;23;19964;-75
2023/08/02 10:25:31;;;;;;;;;;;24.00;99.90;;;;;;6029134;23;20457;-80
2023/08/02 10:27:57;;;;;;;;;;;23.90;99.90;;;;;;6026015;23;20304;-80
2023/08/02 10:30:22;;;;;;;;;;;23.70;99.90;;;;;;6027981;23;20040;-77
2023/08/02 10:33:10;;;;;;;;;;;23.60;99.90;;;;;;6026290;23;19930;-77
2023/08/02 10:35:54;;;;;;;;;;;23.70;99.90;;;;;;6026784;23;19925;-72
2023/08/02 10:38:25;;;;;;;;;;;23.80;99.90;;;;;;6022886;23;20356;-70
2023/08/02 10:41:03;;;;;;;;;;;23.90;99.90;;;;;;6028658;23;19957;-70
2023/08/02 10:43:28;;;;;;;;;;;23.90;99.90;;;;;;6025810;23;19955;-70
2023/08/02 10:46:27;;;;;;;;;;;23.90;99.90;;;;;;6026930;23;19943;-80
2023/08/02 10:49:13;;;;;;;;;;;24.00;99.90;;;;;;5962493;23;20013;-82
2023/08/02 10:51:39;;;;;;;;;;;23.80;99.90;;;;;;6026177;23;19935;-81
2023/08/02 10:54:13;;;;;;;;;;;23.80;99.90;;;;;;5998469;23;19940;-80
2023/08/02 10:57:08;;;;;;;;;;;23.90;99.90;;;;;;5996865;23;20512;-74
2023/08/02 10:59:33;;;;;;;;;;;23.90;99.90;;;;;;6020236;23;20408;-75
2023/08/02 11:01:59;;;;;;;;;;;24.00;99.90;;;;;;6027259;23;20515;-74
2023/08/02 11:04:25;;;;;;;;;;;24.00;99.90;;;;;;6024609;23;19910;-70
2023/08/02 11:06:50;;;;;;;;;;;24.10;99.90;;;;;;6026835;23;20405;-70
2023/08/02 11:09:16;;;;;;;;;;;24.10;99.90;;;;;;6022381;23;19969;-70
2023/08/02 11:11:41;;;;;;;;;;;24.00;99.90;;;;;;6024041;23;20265;-70
2023/08/02 11:14:07;;;;;;;;;;;24.00;99.90;;;;;;6024558;23;20200;-70
2023/08/02 11:16:40;;;;;;;;;;;24.10;99.90;;;;;;6026090;23;19928;-70
2023/08/02 11:19:12;;;;;;;;;;;24.20;99.90;;;;;;6026306;23;19986;-70
2023/08/02 11:21:38;;;;;;;;;;;24.20;99.90;;;;;;6020000;23;19944;-73
2023/08/02 11:24:03;;;;;;;;;;;24.20;99.90;;;;;;6016627;23;20637;-73
2023/08/02 11:26:30;;;;;;;;;;;24.20;99.90;;;;;;6021891;23;19956;-73
2023/08/02 11:28:55;;;;;;;;;;;24.20;99.90;;;;;;6021808;23;19928;-74
2023/08/02 11:31:24;;;;;;;;;;;24.30;99.90;;;;;;6019226;23;19935;-72
2023/08/02 11:33:50;;;;;;;;;;;24.40;99.90;;;;;;6022053;23;19955;-74
2023/08/02 11:36:16;;;;;;;;;;;24.40;99.90;;;;;;6023274;23;19923;-73
2023/08/02 11:38:42;;;;;;;;;;;24.40;99.90;;;;;;6023153;23;19929;-75
2023/08/02 11:41:17;;;;;;;;;;;24.30;99.90;;;;;;6016690;23;19950;-75
2023/08/02 11:43:43;;;;;;;;;;;24.30;99.90;;;;;;6000163;23;20021;-75
2023/08/02 11:46:12;;;;;;;;;;;24.30;99.90;;;;;;6024271;23;19916;-75
2023/08/02 11:48:40;;;;;;;;;;;24.30;99.90;;;;;;6016536;23;20167;-75
2023/08/02 11:51:07;;;;;;;;;;;24.40;99.90;;;;;;6021440;23;19933;-75
2023/08/02 11:53:32;;;;;;;;;;;24.40;99.90;;;;;;6025963;23;20003;-74
2023/08/02 11:55:58;;;;;;;;;;;24.40;99.90;;;;;;6024376;23;19931;-75
2023/08/02 11:58:23;;;;;;;;;;;24.50;99.90;;;;;;6020037;23;19927;-74
2023/08/02 12:00:49;;;;;;;;;;;24.50;99.90;;;;;;6021905;23;20397;-75
2023/08/02 12:03:15;;;;;;;;;;;24.60;99.90;;;;;;6021458;23;19935;-74
2023/08/02 12:05:41;;;;;;;;;;;24.60;99.90;;;;;;6020120;23;19931;-74
2023/08/02 12:08:10;;;;;;;;;;;24.60;99.90;;;;;;6018259;23;19980;-75
2023/08/02 12:10:36;;;;;;;;;;;24.70;99.90;;;;;;6022135;23;19969;-75
2023/08/02 12:13:15;;;;;;;;;;;24.60;99.90;;;;;;6019021;23;19972;-74
2023/08/02 12:16:01;;;;;;;;;;;24.60;99.90;;;;;;6020274;23;19974;-68
2023/08/02 12:18:26;;;;;;;;;;;24.50;99.90;;;;;;6018487;23;20276;-68
2023/08/02 12:20:52;;;;;;;;;;;24.50;99.90;;;;;;6017391;23;20506;-68
2023/08/02 12:23:34;;;;;;;;;;;24.50;99.90;;;;;;6021923;23;20106;-68
2023/08/02 12:25:59;;;;;;;;;;;24.50;99.90;;;;;;6019310;23;19929;-68
2023/08/02 12:28:25;;;;;;;;;;;24.40;99.90;;;;;;6016616;23;19933;-68
2023/08/02 12:31:03;;;;;;;;;;;24.40;99.90;;;;;;6018878;23;20676;-67
2023/08/02 12:33:29;;;;;;;;;;;24.50;99.90;;;;;;6026735;23;19973;-68
2023/08/02 12:35:54;;;;;;;;;;;24.60;99.90;;;;;;6021298;23;20016;-68
2023/08/02 12:38:20;;;;;;;;;;;24.50;99.90;;;;;;6023293;23;19934;-68
2023/08/02 12:40:46;;;;;;;;;;;24.50;99.90;;;;;;6026025;23;20018;-68
2023/08/02 12:43:11;;;;;;;;;;;24.50;99.90;;;;;;6021612;23;19932;-68
2023/08/02 12:45:37;;;;;;;;;;;24.50;99.90;;;;;;6021175;23;19961;-68
2023/08/02 12:48:02;;;;;;;;;;;24.60;99.90;;;;;;6020165;23;19938;-68
2023/08/02 12:50:28;;;;;;;;;;;24.80;99.90;;;;;;6021534;23;20015;-68
2023/08/02 12:52:54;;;;;;;;;;;24.80;99.90;;;;;;6023813;23;20335;-68
2023/08/02 12:55:19;;;;;;;;;;;24.70;99.90;;;;;;6023964;23;20047;-68
2023/08/02 12:57:45;;;;;;;;;;;24.70;99.90;;;;;;6024326;23;20657;-68
2023/08/02 13:00:11;;;;;;;;;;;24.80;99.90;;;;;;6022177;23;19956;-68
2023/08/02 13:02:38;;;;;;;;;;;24.90;99.90;;;;;;6022990;23;19957;-68
2023/08/02 13:05:04;;;;;;;;;;;25.00;99.90;;;;;;6022544;23;19927;-68
2023/08/02 13:07:29;;;;;;;;;;;25.00;99.90;;;;;;6024851;23;19944;-69
2023/08/02 13:09:55;;;;;;;;;;;25.10;99.90;;;;;;6024486;23;19919;-68
2023/08/02 13:12:20;;;;;;;;;;;25.20;99.90;;;;;;6025199;23;19922;-68
2023/08/02 13:14:46;;;;;;;;;;;25.30;99.90;;;;;;6021696;23;20011;-68
2023/08/02 13:17:13;;;;;;;;;;;25.30;99.90;;;;;;6024778;23;20007;-68
2023/08/02 13:19:39;;;;;;;;;;;25.30;99.80;;;;;;6024270;23;20645;-68
2023/08/02 13:22:04;;;;;;;;;;;25.20;99.10;;;;;;6023324;23;19960;-67
2023/08/02 13:24:30;;;;;;;;;;;25.20;99.50;;;;;;6020978;23;20109;-68
2023/08/02 13:26:55;;;;;;;;;;;25.20;99.80;;;;;;6023997;23;19926;-67
2023/08/02 13:29:21;;;;;;;;;;;25.20;99.70;;;;;;6023349;23;19920;-67
2023/08/02 13:31:46;;;;;;;;;;;25.20;99.90;;;;;;6024691;23;19957;-67
2023/08/02 13:34:12;;;;;;;;;;;25.20;99.50;;;;;;6022785;23;20016;-67
2023/08/02 13:36:37;;;;;;;;;;;25.30;99.90;;;;;;6019814;23;20444;-67
2023/08/02 13:39:03;;;;;;;;;;;25.40;99.50;;;;;;6022866;23;19950;-67
2023/08/02 13:41:28;;;;;;;;;;;25.50;98.70;;;;;;6015398;23;20398;-68
2023/08/02 13:43:54;;;;;;;;;;;25.50;99.10;;;;;;6019541;23;19975;-67
2023/08/02 13:46:19;;;;;;;;;;;25.60;98.60;;;;;;6025794;23;20027;-67
2023/08/02 13:48:45;;;;;;;;;;;25.50;98.10;;;;;;6027835;23;19925;-75
2023/08/02 13:51:10;;;;;;;;;;;25.50;98.40;;;;;;6026931;23;20018;-75
2023/08/02 13:53:37;;;;;;;;;;;25.50;96.80;;;;;;6024392;23;19934;-75
2023/08/02 13:56:02;;;;;;;;;;;25.40;97.40;;;;;;6023515;23;19936;-75
2023/08/02 13:58:28;;;;;;;;;;;25.30;98.20;;;;;;6025969;23;19924;-75
2023/08/02 14:00:53;;;;;;;;;;;25.20;99.30;;;;;;6001133;23;20476;-75
2023/08/02 14:03:19;;;;;;;;;;;25.20;98.40;;;;;;6026355;23;19953;-75
2023/08/02 14:05:45;;;;;;;;;;;25.30;98.70;;;;;;6027368;23;19978;-76
2023/08/02 14:08:10;;;;;;;;;;;25.30;98.90;;;;;;6026917;23;19913;-76
2023/08/02 14:10:36;;;;;;;;;;;25.30;99.50;;;;;;6023733;23;19927;-75
2023/08/02 14:13:01;;;;;;;;;;;25.20;99.30;;;;;;6023040;23;20374;-76